sensor_id;sensor_type;location;lat;lon;timestamp;P1;durP1;ratioP1;P2;durP2;ratioP2
74753;SDS011;63271;53.340;-6.260;2023-09-08T06:03:20;80.47;;;44.67;;
74753;SDS011;63271;53.340;-6.260;2023-09-08T06:05:46;82.90;;;43.72;;
74753;SDS011;63271;53.340;-6.260;2023-09-08T06:08:11;77.97;;;42.50;;
74753;SDS011;63271;53.340;-6.260;2023-09-08T06:10:39;76.53;;;42.53;;
74753;SDS011;63271;53.340;-6.260;2023-09-08T06:13:04;92.38;;;45.42;;
74753;SDS011;63271;53.340;-6.260;2023-09-08T06:15:32;83.50;;;43.65;;
74753;SDS011;63271;53.340;-6.260;2023-09-08T06:17:58;81.15;;;44.78;;
74753;SDS011;63271;53.340;-6.260;2023-09-08T06:20:23;77.90;;;42.60;;
74753;SDS011;63271;53.340;-6.260;2023-09-08T06:22:51;74.93;;;43.50;;
74753;SDS011;63271;53.340;-6.260;2023-09-08T06:25:19;83.45;;;44.80;;
74753;SDS011;63271;53.340;-6.260;2023-09-08T06:27:44;85.80;;;46.15;;
74753;SDS011;63271;53.340;-6.260;2023-09-08T06:30:10;89.03;;;46.90;;
74753;SDS011;63271;53.340;-6.260;2023-09-08T06:32:38;78.07;;;43.58;;
74753;SDS011;63271;53.340;-6.260;2023-09-08T06:35:06;81.65;;;44.60;;
74753;SDS011;63271;53.340;-6.260;2023-09-08T06:37:38;72.80;;;42.03;;
74753;SDS011;63271;53.340;-6.260;2023-09-08T06:40:04;75.78;;;41.28;;
74753;SDS011;63271;53.340;-6.260;2023-09-08T06:42:33;79.22;;;43.35;;
74753;SDS011;63271;53.340;-6.260;2023-09-08T06:44:58;80.55;;;40.65;;
74753;SDS011;63271;53.340;-6.260;2023-09-08T06:47:26;72.32;;;41.50;;
74753;SDS011;63271;53.340;-6.260;2023-09-08T06:49:52;67.22;;;40.53;;
74753;SDS011;63271;53.340;-6.260;2023-09-08T06:52:17;75.72;;;41.75;;
74753;SDS011;63271;53.340;-6.260;2023-09-08T06:54:43;79.28;;;42.58;;
74753;SDS011;63271;53.340;-6.260;2023-09-08T06:57:11;72.40;;;40.65;;
74753;SDS011;63271;53.340;-6.260;2023-09-08T06:59:39;70.93;;;41.45;;
74753;SDS011;63271;53.340;-6.260;2023-09-08T07:02:09;72.20;;;39.28;;
74753;SDS011;63271;53.340;-6.260;2023-09-08T07:04:36;78.05;;;42.25;;
74753;SDS011;63271;53.340;-6.260;2023-09-08T07:07:02;82.07;;;42.78;;
74753;SDS011;63271;53.340;-6.260;2023-09-08T07:09:32;82.65;;;43.88;;
74753;SDS011;63271;53.340;-6.260;2023-09-08T07:11:58;84.05;;;44.03;;
74753;SDS011;63271;53.340;-6.260;2023-09-08T07:14:24;79.82;;;42.58;;
74753;SDS011;63271;53.340;-6.260;2023-09-08T07:16:49;74.30;;;43.65;;
74753;SDS011;63271;53.340;-6.260;2023-09-08T07:19:15;73.88;;;41.28;;
74753;SDS011;63271;53.340;-6.260;2023-09-08T07:21:42;72.47;;;41.88;;
74753;SDS011;63271;53.340;-6.260;2023-09-08T07:24:08;72.40;;;40.80;;
74753;SDS011;63271;53.340;-6.260;2023-09-08T07:26:33;70.38;;;40.05;;
74753;SDS011;63271;53.340;-6.260;2023-09-08T07:29:01;69.30;;;39.67;;
74753;SDS011;63271;53.340;-6.260;2023-09-08T07:31:26;68.80;;;39.53;;
74753;SDS011;63271;53.340;-6.260;2023-09-08T07:33:52;66.10;;;39.35;;
74753;SDS011;63271;53.340;-6.260;2023-09-08T07:36:17;63.97;;;37.67;;
74753;SDS011;63271;53.340;-6.260;2023-09-08T07:38:43;64.90;;;36.38;;
74753;SDS011;63271;53.340;-6.260;2023-09-08T07:41:08;66.15;;;37.85;;
74753;SDS011;63271;53.340;-6.260;2023-09-08T07:43:33;64.57;;;38.70;;
74753;SDS011;63271;53.340;-6.260;2023-09-08T07:45:59;69.72;;;37.97;;
74753;SDS011;63271;53.340;-6.260;2023-09-08T07:48:24;72.03;;;39.28;;
74753;SDS011;63271;53.340;-6.260;2023-09-08T07:50:50;72.75;;;39.50;;
74753;SDS011;63271;53.340;-6.260;2023-09-08T07:53:15;77.80;;;38.58;;
74753;SDS011;63271;53.340;-6.260;2023-09-08T07:55:41;68.70;;;39.85;;
74753;SDS011;63271;53.340;-6.260;2023-09-08T07:58:07;68.78;;;39.13;;
74753;SDS011;63271;53.340;-6.260;2023-09-08T08:00:33;80.93;;;41.50;;
74753;SDS011;63271;53.340;-6.260;2023-09-08T08:03:00;73.90;;;45.47;;
74753;SDS011;63271;53.340;-6.260;2023-09-08T08:05:28;78.18;;;42.88;;
74753;SDS011;63271;53.340;-6.260;2023-09-08T08:07:53;70.30;;;41.17;;
74753;SDS011;63271;53.340;-6.260;2023-09-08T08:10:21;73.68;;;42.55;;
74753;SDS011;63271;53.340;-6.260;2023-09-08T08:12:49;73.50;;;41.58;;
74753;SDS011;63271;53.340;-6.260;2023-09-08T08:15:14;75.22;;;39.75;;
74753;SDS011;63271;53.340;-6.260;2023-09-08T08:17:40;71.50;;;40.05;;
74753;SDS011;63271;53.340;-6.260;2023-09-08T08:20:08;72.05;;;38.83;;
74753;SDS011;63271;53.340;-6.260;2023-09-08T08:22:36;73.65;;;40.08;;
74753;SDS011;63271;53.340;-6.260;2023-09-08T08:25:04;71.80;;;38.92;;
74753;SDS011;63271;53.340;-6.260;2023-09-08T08:27:30;74.90;;;40.58;;
74753;SDS011;63271;53.340;-6.260;2023-09-08T08:29:56;67.85;;;37.28;;
74753;SDS011;63271;53.340;-6.260;2023-09-08T08:32:26;67.50;;;36.25;;
74753;SDS011;63271;53.340;-6.260;2023-09-08T08:34:52;64.93;;;35.45;;
74753;SDS011;63271;53.340;-6.260;2023-09-08T08:37:19;61.80;;;35.25;;
74753;SDS011;63271;53.340;-6.260;2023-09-08T08:39:45;65.00;;;33.78;;
74753;SDS011;63271;53.340;-6.260;2023-09-08T08:42:10;59.00;;;34.45;;
74753;SDS011;63271;53.340;-6.260;2023-09-08T08:44:38;66.35;;;35.92;;
74753;SDS011;63271;53.340;-6.260;2023-09-08T08:47:06;66.07;;;36.40;;
74753;SDS011;63271;53.340;-6.260;2023-09-08T08:49:32;65.07;;;34.85;;
74753;SDS011;63271;53.340;-6.260;2023-09-08T08:51:58;64.45;;;36.58;;
74753;SDS011;63271;53.340;-6.260;2023-09-08T08:54:27;62.13;;;35.75;;
74753;SDS011;63271;53.340;-6.260;2023-09-08T08:56:53;69.63;;;34.67;;
74753;SDS011;63271;53.340;-6.260;2023-09-08T08:59:23;54.42;;;33.58;;
74753;SDS011;63271;53.340;-6.260;2023-09-08T09:01:51;56.40;;;32.20;;
74753;SDS011;63271;53.340;-6.260;2023-09-08T09:04:16;63.33;;;32.65;;
74753;SDS011;63271;53.340;-6.260;2023-09-08T09:06:42;55.35;;;31.25;;
74753;SDS011;63271;53.340;-6.260;2023-09-08T09:09:09;54.13;;;30.00;;
74753;SDS011;63271;53.340;-6.260;2023-09-08T09:11:35;55.92;;;31.77;;
74753;SDS011;63271;53.340;-6.260;2023-09-08T09:14:04;57.22;;;31.05;;
74753;SDS011;63271;53.340;-6.260;2023-09-08T09:16:38;57.92;;;29.70;;
74753;SDS011;63271;53.340;-6.260;2023-09-08T09:19:05;58.80;;;31.75;;
74753;SDS011;63271;53.340;-6.260;2023-09-08T09:21:46;56.05;;;30.90;;
74753;SDS011;63271;53.340;-6.260;2023-09-08T09:24:17;45.95;;;29.95;;
74753;SDS011;63271;53.340;-6.260;2023-09-08T09:26:45;47.95;;;30.00;;
74753;SDS011;63271;53.340;-6.260;2023-09-08T09:29:11;44.83;;;29.73;;
74753;SDS011;63271;53.340;-6.260;2023-09-08T09:31:43;48.40;;;30.00;;
74753;SDS011;63271;53.340;-6.260;2023-09-08T09:34:18;52.28;;;28.92;;
74753;SDS011;63271;53.340;-6.260;2023-09-08T09:36:43;54.75;;;27.33;;
74753;SDS011;63271;53.340;-6.260;2023-09-08T09:39:10;49.92;;;29.45;;
74753;SDS011;63271;53.340;-6.260;2023-09-08T09:41:37;47.30;;;29.58;;
74753;SDS011;63271;53.340;-6.260;2023-09-08T09:44:05;49.55;;;27.67;;
74753;SDS011;63271;53.340;-6.260;2023-09-08T09:46:30;54.17;;;28.65;;
74753;SDS011;63271;53.340;-6.260;2023-09-08T09:48:58;47.63;;;26.35;;
74753;SDS011;63271;53.340;-6.260;2023-09-08T09:51:24;54.60;;;26.73;;
74753;SDS011;63271;53.340;-6.260;2023-09-08T09:53:50;44.30;;;26.05;;
74753;SDS011;63271;53.340;-6.260;2023-09-08T09:56:22;50.15;;;25.40;;
74753;SDS011;63271;53.340;-6.260;2023-09-08T09:58:48;44.83;;;24.02;;
74753;SDS011;63271;53.340;-6.260;2023-09-08T10:01:16;44.05;;;25.88;;
74753;SDS011;63271;53.340;-6.260;2023-09-08T10:03:42;51.67;;;28.15;;
74753;SDS011;63271;53.340;-6.260;2023-09-08T10:06:08;47.90;;;27.33;;
74753;SDS011;63271;53.340;-6.260;2023-09-08T10:08:34;46.08;;;27.45;;
74753;SDS011;63271;53.340;-6.260;2023-09-08T10:11:04;50.78;;;25.27;;
74753;SDS011;63271;53.340;-6.260;2023-09-08T10:16:02;47.65;;;26.38;;
74753;SDS011;63271;53.340;-6.260;2023-09-08T10:18:30;44.20;;;24.80;;
74753;SDS011;63271;53.340;-6.260;2023-09-08T10:20:58;48.88;;;25.90;;
74753;SDS011;63271;53.340;-6.260;2023-09-08T10:23:36;48.30;;;25.73;;
74753;SDS011;63271;53.340;-6.260;2023-09-08T10:26:06;38.58;;;24.00;;
74753;SDS011;63271;53.340;-6.260;2023-09-08T10:28:35;39.10;;;23.27;;
74753;SDS011;63271;53.340;-6.260;2023-09-08T10:31:01;40.63;;;23.92;;
74753;SDS011;63271;53.340;-6.260;2023-09-08T10:33:30;36.95;;;24.25;;
74753;SDS011;63271;53.340;-6.260;2023-09-08T10:35:59;40.20;;;21.52;;
74753;SDS011;63271;53.340;-6.260;2023-09-08T10:38:26;37.28;;;22.85;;
74753;SDS011;63271;53.340;-6.260;2023-09-08T10:41:38;35.10;;;20.63;;
74753;SDS011;63271;53.340;-6.260;2023-09-08T10:49:09;31.30;;;20.83;;
74753;SDS011;63271;53.340;-6.260;2023-09-08T10:51:35;40.25;;;21.15;;
74753;SDS011;63271;53.340;-6.260;2023-09-08T10:54:01;31.77;;;19.42;;
74753;SDS011;63271;53.340;-6.260;2023-09-08T10:56:28;32.28;;;21.65;;
74753;SDS011;63271;53.340;-6.260;2023-09-08T10:58:58;33.53;;;22.02;;
74753;SDS011;63271;53.340;-6.260;2023-09-08T11:01:26;33.58;;;21.65;;
74753;SDS011;63271;53.340;-6.260;2023-09-08T11:03:56;27.63;;;19.63;;
74753;SDS011;63271;53.340;-6.260;2023-09-08T11:06:23;31.65;;;20.45;;
74753;SDS011;63271;53.340;-6.260;2023-09-08T11:08:48;41.17;;;20.33;;
74753;SDS011;63271;53.340;-6.260;2023-09-08T11:11:15;46.50;;;31.85;;
74753;SDS011;63271;53.340;-6.260;2023-09-08T11:13:41;27.67;;;19.88;;
74753;SDS011;63271;53.340;-6.260;2023-09-08T11:16:15;39.60;;;18.45;;
74753;SDS011;63271;53.340;-6.260;2023-09-08T11:18:42;42.75;;;21.40;;
74753;SDS011;63271;53.340;-6.260;2023-09-08T11:21:10;35.17;;;18.67;;
74753;SDS011;63271;53.340;-6.260;2023-09-08T11:23:36;38.78;;;18.55;;
74753;SDS011;63271;53.340;-6.260;2023-09-08T11:26:04;34.92;;;21.20;;
74753;SDS011;63271;53.340;-6.260;2023-09-08T11:28:31;37.60;;;18.92;;
74753;SDS011;63271;53.340;-6.260;2023-09-08T11:30:57;39.10;;;18.45;;
74753;SDS011;63271;53.340;-6.260;2023-09-08T11:33:24;33.08;;;18.27;;
74753;SDS011;63271;53.340;-6.260;2023-09-08T11:35:53;30.35;;;19.63;;
74753;SDS011;63271;53.340;-6.260;2023-09-08T11:38:24;39.35;;;20.63;;
74753;SDS011;63271;53.340;-6.260;2023-09-08T11:40:53;35.75;;;19.33;;
74753;SDS011;63271;53.340;-6.260;2023-09-08T11:43:19;38.80;;;20.15;;
74753;SDS011;63271;53.340;-6.260;2023-09-08T11:45:44;43.60;;;24.48;;
74753;SDS011;63271;53.340;-6.260;2023-09-08T11:48:10;32.88;;;21.65;;
74753;SDS011;63271;53.340;-6.260;2023-09-08T11:50:35;36.55;;;22.05;;
74753;SDS011;63271;53.340;-6.260;2023-09-08T11:53:01;36.95;;;22.48;;
74753;SDS011;63271;53.340;-6.260;2023-09-08T11:55:27;38.03;;;21.17;;
74753;SDS011;63271;53.340;-6.260;2023-09-08T11:57:55;30.40;;;20.92;;
74753;SDS011;63271;53.340;-6.260;2023-09-08T12:00:27;34.22;;;20.80;;
74753;SDS011;63271;53.340;-6.260;2023-09-08T12:02:53;35.78;;;23.23;;
74753;SDS011;63271;53.340;-6.260;2023-09-08T12:05:27;39.22;;;21.75;;
74753;SDS011;63271;53.340;-6.260;2023-09-08T12:07:56;35.88;;;21.80;;
74753;SDS011;63271;53.340;-6.260;2023-09-08T12:10:24;33.83;;;21.13;;
74753;SDS011;63271;53.340;-6.260;2023-09-08T12:12:51;31.95;;;20.55;;
74753;SDS011;63271;53.340;-6.260;2023-09-08T12:18:00;28.80;;;19.10;;
74753;SDS011;63271;53.340;-6.260;2023-09-08T12:20:35;30.40;;;20.52;;
74753;SDS011;63271;53.340;-6.260;2023-09-08T12:23:03;34.15;;;19.92;;
74753;SDS011;63271;53.340;-6.260;2023-09-08T12:25:32;26.90;;;17.98;;
74753;SDS011;63271;53.340;-6.260;2023-09-08T12:27:59;30.83;;;19.00;;
74753;SDS011;63271;53.340;-6.260;2023-09-08T12:30:25;37.60;;;17.17;;
74753;SDS011;63271;53.340;-6.260;2023-09-08T12:32:58;33.33;;;15.40;;
74753;SDS011;63271;53.340;-6.260;2023-09-08T12:35:29;34.40;;;19.02;;
74753;SDS011;63271;53.340;-6.260;2023-09-08T12:38:00;71.72;;;22.55;;
74753;SDS011;63271;53.340;-6.260;2023-09-08T12:40:27;27.80;;;18.42;;
74753;SDS011;63271;53.340;-6.260;2023-09-08T12:42:54;29.73;;;20.52;;
74753;SDS011;63271;53.340;-6.260;2023-09-08T12:45:21;32.67;;;20.98;;
74753;SDS011;63271;53.340;-6.260;2023-09-08T12:47:50;36.83;;;21.58;;
74753;SDS011;63271;53.340;-6.260;2023-09-08T12:50:16;28.50;;;20.73;;
74753;SDS011;63271;53.340;-6.260;2023-09-08T12:52:42;29.38;;;22.35;;
74753;SDS011;63271;53.340;-6.260;2023-09-08T12:55:10;33.08;;;20.13;;
74753;SDS011;63271;53.340;-6.260;2023-09-08T12:57:37;29.92;;;19.23;;
74753;SDS011;63271;53.340;-6.260;2023-09-08T13:00:08;35.75;;;20.30;;
74753;SDS011;63271;53.340;-6.260;2023-09-08T13:02:34;32.80;;;19.60;;
74753;SDS011;63271;53.340;-6.260;2023-09-08T13:05:02;32.97;;;21.20;;
74753;SDS011;63271;53.340;-6.260;2023-09-08T13:07:30;37.53;;;21.70;;
74753;SDS011;63271;53.340;-6.260;2023-09-08T13:10:00;36.97;;;21.38;;
74753;SDS011;63271;53.340;-6.260;2023-09-08T13:12:30;31.80;;;21.35;;
74753;SDS011;63271;53.340;-6.260;2023-09-08T13:14:56;34.45;;;22.77;;
74753;SDS011;63271;53.340;-6.260;2023-09-08T13:17:24;33.22;;;21.92;;
74753;SDS011;63271;53.340;-6.260;2023-09-08T13:19:51;33.05;;;23.40;;
74753;SDS011;63271;53.340;-6.260;2023-09-08T13:22:19;34.40;;;20.02;;
74753;SDS011;63271;53.340;-6.260;2023-09-08T13:24:45;31.05;;;19.58;;
74753;SDS011;63271;53.340;-6.260;2023-09-08T13:27:10;30.58;;;20.77;;
74753;SDS011;63271;53.340;-6.260;2023-09-08T13:29:40;31.40;;;20.98;;
74753;SDS011;63271;53.340;-6.260;2023-09-08T13:32:08;27.23;;;19.17;;
74753;SDS011;63271;53.340;-6.260;2023-09-08T13:34:33;34.92;;;21.17;;
74753;SDS011;63271;53.340;-6.260;2023-09-08T13:37:00;27.08;;;17.83;;
74753;SDS011;63271;53.340;-6.260;2023-09-08T13:39:28;32.90;;;19.70;;
74753;SDS011;63271;53.340;-6.260;2023-09-08T13:41:58;28.48;;;19.05;;
74753;SDS011;63271;53.340;-6.260;2023-09-08T13:44:27;28.77;;;18.42;;
74753;SDS011;63271;53.340;-6.260;2023-09-08T13:46:57;29.73;;;17.70;;
74753;SDS011;63271;53.340;-6.260;2023-09-08T13:49:23;36.75;;;16.67;;
74753;SDS011;63271;53.340;-6.260;2023-09-08T13:51:48;32.47;;;18.77;;
74753;SDS011;63271;53.340;-6.260;2023-09-08T13:54:20;33.67;;;16.75;;
74753;SDS011;63271;53.340;-6.260;2023-09-08T13:56:57;31.42;;;14.55;;
74753;SDS011;63271;53.340;-6.260;2023-09-08T13:59:29;32.00;;;11.30;;
74753;SDS011;63271;53.340;-6.260;2023-09-08T14:02:00;27.63;;;10.27;;
74753;SDS011;63271;53.340;-6.260;2023-09-08T14:04:30;39.67;;;12.57;;
74753;SDS011;63271;53.340;-6.260;2023-09-08T14:06:59;26.88;;;11.68;;
74753;SDS011;63271;53.340;-6.260;2023-09-08T14:09:24;28.35;;;14.65;;
74753;SDS011;63271;53.340;-6.260;2023-09-08T14:11:51;33.83;;;13.73;;
74753;SDS011;63271;53.340;-6.260;2023-09-08T14:14:21;25.20;;;12.38;;
74753;SDS011;63271;53.340;-6.260;2023-09-08T14:16:46;27.38;;;11.20;;
74753;SDS011;63271;53.340;-6.260;2023-09-08T14:19:12;27.08;;;11.73;;
74753;SDS011;63271;53.340;-6.260;2023-09-08T14:21:40;27.10;;;11.27;;
74753;SDS011;63271;53.340;-6.260;2023-09-08T14:24:05;27.13;;;12.55;;
74753;SDS011;63271;53.340;-6.260;2023-09-08T14:26:31;31.00;;;12.63;;
74753;SDS011;63271;53.340;-6.260;2023-09-08T14:29:00;24.33;;;12.27;;
74753;SDS011;63271;53.340;-6.260;2023-09-08T14:31:28;23.15;;;12.65;;
74753;SDS011;63271;53.340;-6.260;2023-09-08T14:33:54;28.38;;;10.55;;
74753;SDS011;63271;53.340;-6.260;2023-09-08T14:36:22;28.50;;;10.32;;
74753;SDS011;63271;53.340;-6.260;2023-09-08T14:38:47;26.75;;;10.25;;
74753;SDS011;63271;53.340;-6.260;2023-09-08T14:41:13;23.20;;;10.57;;
74753;SDS011;63271;53.340;-6.260;2023-09-08T14:43:39;25.40;;;10.70;;
74753;SDS011;63271;53.340;-6.260;2023-09-08T14:46:07;29.85;;;12.43;;
74753;SDS011;63271;53.340;-6.260;2023-09-08T14:48:32;27.75;;;10.82;;
74753;SDS011;63271;53.340;-6.260;2023-09-08T14:50:58;37.17;;;11.55;;
74753;SDS011;63271;53.340;-6.260;2023-09-08T14:53:23;29.55;;;12.30;;
74753;SDS011;63271;53.340;-6.260;2023-09-08T14:55:49;23.23;;;11.73;;
74753;SDS011;63271;53.340;-6.260;2023-09-08T14:58:15;21.63;;;13.32;;
74753;SDS011;63271;53.340;-6.260;2023-09-08T15:00:41;28.83;;;16.08;;
74753;SDS011;63271;53.340;-6.260;2023-09-08T15:03:06;27.55;;;15.25;;
74753;SDS011;63271;53.340;-6.260;2023-09-08T15:05:32;30.55;;;15.40;;
74753;SDS011;63271;53.340;-6.260;2023-09-08T15:07:59;26.88;;;14.55;;
74753;SDS011;63271;53.340;-6.260;2023-09-08T15:10:24;30.08;;;13.27;;
74753;SDS011;63271;53.340;-6.260;2023-09-08T15:12:50;31.35;;;14.68;;
74753;SDS011;63271;53.340;-6.260;2023-09-08T15:15:20;29.45;;;15.45;;
74753;SDS011;63271;53.340;-6.260;2023-09-08T15:17:52;33.92;;;16.77;;
74753;SDS011;63271;53.340;-6.260;2023-09-08T15:22:43;31.33;;;18.43;;
74753;SDS011;63271;53.340;-6.260;2023-09-08T15:25:09;32.63;;;15.70;;
74753;SDS011;63271;53.340;-6.260;2023-09-08T15:27:37;30.48;;;17.08;;
74753;SDS011;63271;53.340;-6.260;2023-09-08T15:30:05;25.42;;;13.13;;
74753;SDS011;63271;53.340;-6.260;2023-09-08T15:32:31;29.10;;;14.48;;
74753;SDS011;63271;53.340;-6.260;2023-09-08T15:34:58;32.70;;;15.57;;
74753;SDS011;63271;53.340;-6.260;2023-09-08T15:37:28;34.03;;;14.15;;
74753;SDS011;63271;53.340;-6.260;2023-09-08T15:39:53;28.48;;;13.95;;
74753;SDS011;63271;53.340;-6.260;2023-09-08T15:42:21;34.30;;;14.02;;
74753;SDS011;63271;53.340;-6.260;2023-09-08T15:44:46;28.20;;;16.30;;
74753;SDS011;63271;53.340;-6.260;2023-09-08T15:47:12;34.53;;;18.00;;
74753;SDS011;63271;53.340;-6.260;2023-09-08T15:49:39;30.30;;;16.67;;
74753;SDS011;63271;53.340;-6.260;2023-09-08T15:52:08;34.95;;;18.73;;
74753;SDS011;63271;53.340;-6.260;2023-09-08T15:54:33;29.65;;;18.33;;
74753;SDS011;63271;53.340;-6.260;2023-09-08T15:56:59;28.52;;;18.83;;
74753;SDS011;63271;53.340;-6.260;2023-09-08T15:59:24;36.65;;;19.35;;
74753;SDS011;63271;53.340;-6.260;2023-09-08T16:01:52;31.15;;;17.60;;
74753;SDS011;63271;53.340;-6.260;2023-09-08T16:04:20;25.70;;;18.08;;
74753;SDS011;63271;53.340;-6.260;2023-09-08T16:06:45;32.03;;;18.05;;
74753;SDS011;63271;53.340;-6.260;2023-09-08T16:09:11;34.92;;;17.27;;
74753;SDS011;63271;53.340;-6.260;2023-09-08T16:11:36;26.38;;;18.10;;
74753;SDS011;63271;53.340;-6.260;2023-09-08T16:14:02;38.72;;;18.45;;
74753;SDS011;63271;53.340;-6.260;2023-09-08T16:16:29;28.73;;;18.05;;
74753;SDS011;63271;53.340;-6.260;2023-09-08T16:18:55;27.55;;;17.42;;
74753;SDS011;63271;53.340;-6.260;2023-09-08T16:21:20;32.45;;;17.23;;
74753;SDS011;63271;53.340;-6.260;2023-09-08T16:23:48;35.42;;;18.95;;
74753;SDS011;63271;53.340;-6.260;2023-09-08T16:26:16;28.48;;;17.95;;
74753;SDS011;63271;53.340;-6.260;2023-09-08T16:28:43;30.80;;;18.00;;
74753;SDS011;63271;53.340;-6.260;2023-09-08T16:31:09;34.38;;;17.45;;
74753;SDS011;63271;53.340;-6.260;2023-09-08T16:33:38;31.33;;;16.33;;
74753;SDS011;63271;53.340;-6.260;2023-09-08T16:36:03;36.80;;;15.40;;
74753;SDS011;63271;53.340;-6.260;2023-09-08T16:38:29;36.05;;;16.75;;
74753;SDS011;63271;53.340;-6.260;2023-09-08T16:40:59;33.30;;;17.73;;
74753;SDS011;63271;53.340;-6.260;2023-09-08T16:43:25;28.95;;;15.43;;
74753;SDS011;63271;53.340;-6.260;2023-09-08T16:45:50;32.28;;;18.60;;
74753;SDS011;63271;53.340;-6.260;2023-09-08T16:48:18;39.72;;;18.20;;
74753;SDS011;63271;53.340;-6.260;2023-09-08T16:50:46;37.80;;;20.05;;
74753;SDS011;63271;53.340;-6.260;2023-09-08T16:53:13;33.25;;;19.45;;
74753;SDS011;63271;53.340;-6.260;2023-09-08T16:55:39;37.55;;;22.25;;
74753;SDS011;63271;53.340;-6.260;2023-09-08T16:58:04;48.72;;;24.27;;
74753;SDS011;63271;53.340;-6.260;2023-09-08T17:00:29;41.70;;;22.92;;
74753;SDS011;63271;53.340;-6.260;2023-09-08T17:02:57;38.20;;;23.35;;
74753;SDS011;63271;53.340;-6.260;2023-09-08T17:05:23;40.13;;;24.75;;
74753;SDS011;63271;53.340;-6.260;2023-09-08T17:07:48;48.80;;;25.00;;
74753;SDS011;63271;53.340;-6.260;2023-09-08T17:10:16;36.60;;;24.92;;
74753;SDS011;63271;53.340;-6.260;2023-09-08T17:12:41;49.20;;;27.00;;
74753;SDS011;63271;53.340;-6.260;2023-09-08T17:15:07;41.28;;;25.98;;
74753;SDS011;63271;53.340;-6.260;2023-09-08T17:17:33;42.03;;;25.25;;
74753;SDS011;63271;53.340;-6.260;2023-09-08T17:19:58;41.15;;;25.40;;
74753;SDS011;63271;53.340;-6.260;2023-09-08T17:22:26;48.83;;;24.80;;
74753;SDS011;63271;53.340;-6.260;2023-09-08T17:24:53;52.03;;;26.23;;
74753;SDS011;63271;53.340;-6.260;2023-09-08T17:27:19;47.15;;;27.50;;
74753;SDS011;63271;53.340;-6.260;2023-09-08T17:29:44;40.97;;;23.88;;
74753;SDS011;63271;53.340;-6.260;2023-09-08T17:32:12;41.50;;;26.65;;
74753;SDS011;63271;53.340;-6.260;2023-09-08T17:34:39;38.95;;;22.27;;
74753;SDS011;63271;53.340;-6.260;2023-09-08T17:37:05;40.05;;;23.73;;
74753;SDS011;63271;53.340;-6.260;2023-09-08T17:39:30;36.33;;;22.33;;
74753;SDS011;63271;53.340;-6.260;2023-09-08T17:41:56;38.65;;;21.52;;
74753;SDS011;63271;53.340;-6.260;2023-09-08T17:44:21;35.78;;;18.92;;
74753;SDS011;63271;53.340;-6.260;2023-09-08T17:46:49;36.53;;;22.23;;
74753;SDS011;63271;53.340;-6.260;2023-09-08T17:49:14;32.63;;;20.92;;
74753;SDS011;63271;53.340;-6.260;2023-09-08T17:51:40;38.45;;;22.00;;
74753;SDS011;63271;53.340;-6.260;2023-09-08T17:54:05;43.72;;;20.90;;
74753;SDS011;63271;53.340;-6.260;2023-09-08T17:56:33;33.97;;;20.48;;
74753;SDS011;63271;53.340;-6.260;2023-09-08T17:58:59;34.88;;;20.15;;
74753;SDS011;63271;53.340;-6.260;2023-09-08T18:01:24;37.03;;;21.27;;
74753;SDS011;63271;53.340;-6.260;2023-09-08T18:03:52;36.22;;;17.63;;
74753;SDS011;63271;53.340;-6.260;2023-09-08T18:06:18;43.30;;;20.58;;
74753;SDS011;63271;53.340;-6.260;2023-09-08T18:08:43;40.33;;;23.92;;
74753;SDS011;63271;53.340;-6.260;2023-09-08T18:11:15;32.10;;;19.50;;
74753;SDS011;63271;53.340;-6.260;2023-09-08T18:13:42;32.60;;;18.10;;
74753;SDS011;63271;53.340;-6.260;2023-09-08T18:16:09;26.45;;;15.95;;
74753;SDS011;63271;53.340;-6.260;2023-09-08T18:18:35;31.85;;;17.20;;
74753;SDS011;63271;53.340;-6.260;2023-09-08T18:21:00;31.50;;;14.73;;
74753;SDS011;63271;53.340;-6.260;2023-09-08T18:23:26;31.90;;;15.82;;
74753;SDS011;63271;53.340;-6.260;2023-09-08T18:25:52;37.10;;;15.55;;
74753;SDS011;63271;53.340;-6.260;2023-09-08T18:28:19;23.92;;;14.23;;
74753;SDS011;63271;53.340;-6.260;2023-09-08T18:30:44;31.52;;;15.82;;
74753;SDS011;63271;53.340;-6.260;2023-09-08T18:33:15;34.75;;;15.68;;
74753;SDS011;63271;53.340;-6.260;2023-09-08T18:35:41;30.90;;;14.02;;
74753;SDS011;63271;53.340;-6.260;2023-09-08T18:38:06;27.35;;;13.32;;
74753;SDS011;63271;53.340;-6.260;2023-09-08T18:40:33;45.47;;;25.50;;
74753;SDS011;63271;53.340;-6.260;2023-09-08T18:42:59;32.20;;;16.25;;
74753;SDS011;63271;53.340;-6.260;2023-09-08T18:45:24;37.33;;;20.73;;
74753;SDS011;63271;53.340;-6.260;2023-09-08T18:47:52;29.80;;;14.82;;
74753;SDS011;63271;53.340;-6.260;2023-09-08T18:50:18;35.88;;;13.32;;
74753;SDS011;63271;53.340;-6.260;2023-09-08T18:52:45;24.95;;;12.05;;
74753;SDS011;63271;53.340;-6.260;2023-09-08T18:55:11;28.90;;;14.98;;
74753;SDS011;63271;53.340;-6.260;2023-09-08T18:57:42;27.52;;;12.77;;
74753;SDS011;63271;53.340;-6.260;2023-09-08T19:00:08;25.83;;;14.38;;
